sensor_id;sensor_type;location;lat;lon;timestamp;pressure;altitude;pressure_sealevel;temperature;humidity
30302;BME280;17111;52.130;5.028;2023-07-31T00:01:12;101025.69;;;23.19;52.64
30302;BME280;17111;52.130;5.028;2023-07-31T00:03:39;101020.28;;;23.19;52.86
30302;BME280;17111;52.130;5.028;2023-07-31T00:06:06;101007.59;;;23.19;52.49
30302;BME280;17111;52.130;5.028;2023-07-31T00:08:33;101004.91;;;23.19;52.75
30302;BME280;17111;52.130;5.028;2023-07-31T00:10:59;101001.19;;;23.20;52.75
30302;BME280;17111;52.130;5.028;2023-07-31T00:13:26;101000.34;;;23.20;53.04
30302;BME280;17111;52.130;5.028;2023-07-31T00:15:52;101000.34;;;23.20;52.93
30302;BME280;17111;52.130;5.028;2023-07-31T00:18:19;100992.25;;;23.20;52.79
30302;BME280;17111;52.130;5.028;2023-07-31T00:20:46;100998.28;;;23.22;52.47
30302;BME280;17111;52.130;5.028;2023-07-31T00:23:12;100994.75;;;23.21;53.02
30302;BME280;17111;52.130;5.028;2023-07-31T00:25:39;100992.88;;;23.22;52.51
30302;BME280;17111;52.130;5.028;2023-07-31T00:28:06;100983.09;;;23.21;52.83
30302;BME280;17111;52.130;5.028;2023-07-31T00:30:32;100996.63;;;23.21;52.97
30302;BME280;17111;52.130;5.028;2023-07-31T00:32:59;101010.78;;;23.23;52.75
30302;BME280;17111;52.130;5.028;2023-07-31T00:35:26;101014.53;;;23.22;53.00
30302;BME280;17111;52.130;5.028;2023-07-31T00:37:52;101006.41;;;23.22;53.07
30302;BME280;17111;52.130;5.028;2023-07-31T00:40:19;101002.88;;;23.21;53.03
30302;BME280;17111;52.130;5.028;2023-07-31T00:42:45;100992.88;;;23.22;53.14
30302;BME280;17111;52.130;5.028;2023-07-31T00:45:12;101003.69;;;23.22;53.45
30302;BME280;17111;52.130;5.028;2023-07-31T00:47:38;101002.88;;;23.21;53.01
30302;BME280;17111;52.130;5.028;2023-07-31T00:50:06;101006.41;;;23.22;53.08
30302;BME280;17111;52.130;5.028;2023-07-31T00:52:33;101010.16;;;23.21;53.22
30302;BME280;17111;52.130;5.028;2023-07-31T00:55:00;101002.03;;;23.21;53.23
30302;BME280;17111;52.130;5.028;2023-07-31T00:57:26;101004.72;;;23.21;53.42
30302;BME280;17111;52.130;5.028;2023-07-31T00:59:53;100994.75;;;23.21;53.50
30302;BME280;17111;52.130;5.028;2023-07-31T01:02:19;100993.25;;;23.19;53.11
30302;BME280;17111;52.130;5.028;2023-07-31T01:04:46;101003.06;;;23.20;53.20
30302;BME280;17111;52.130;5.028;2023-07-31T01:07:24;100993.25;;;23.19;54.03
30302;BME280;17111;52.130;5.028;2023-07-31T01:12:27;100990.53;;;23.19;53.66
30302;BME280;17111;52.130;5.028;2023-07-31T01:17:27;100988.66;;;23.19;53.63
30302;BME280;17111;52.130;5.028;2023-07-31T01:19:55;100985.34;;;23.17;53.52
30302;BME280;17111;52.130;5.028;2023-07-31T01:25:19;100985.13;;;23.19;53.82
30302;BME280;17111;52.130;5.028;2023-07-31T01:27:59;100976.19;;;23.18;53.85
30302;BME280;17111;52.130;5.028;2023-07-31T01:30:33;100983.25;;;23.19;53.31
30302;BME280;17111;52.130;5.028;2023-07-31T01:33:03;100983.25;;;23.19;53.87
30302;BME280;17111;52.130;5.028;2023-07-31T01:35:35;100981.59;;;23.18;53.55
30302;BME280;17111;52.130;5.028;2023-07-31T01:38:02;100981.59;;;23.18;53.39
30302;BME280;17111;52.130;5.028;2023-07-31T01:40:29;100987.00;;;23.18;53.65
30302;BME280;17111;52.130;5.028;2023-07-31T01:42:56;100985.34;;;23.17;53.28
30302;BME280;17111;52.130;5.028;2023-07-31T01:45:22;100979.09;;;23.17;53.79
30302;BME280;17111;52.130;5.028;2023-07-31T01:47:49;100982.63;;;23.17;53.63
30302;BME280;17111;52.130;5.028;2023-07-31T01:50:15;100978.25;;;23.16;53.35
30302;BME280;17111;52.130;5.028;2023-07-31T01:52:42;100972.84;;;23.16;53.75
30302;BME280;17111;52.130;5.028;2023-07-31T01:55:09;100969.28;;;23.15;53.61
30302;BME280;17111;52.130;5.028;2023-07-31T01:57:36;100963.88;;;23.15;53.50
30302;BME280;17111;52.130;5.028;2023-07-31T02:00:03;100961.16;;;23.15;53.44
30302;BME280;17111;52.130;5.028;2023-07-31T02:02:30;100950.34;;;23.15;54.07
30302;BME280;17111;52.130;5.028;2023-07-31T02:04:57;100940.56;;;23.14;53.82
30302;BME280;17111;52.130;5.028;2023-07-31T02:07:24;100943.25;;;23.14;53.38
30302;BME280;17111;52.130;5.028;2023-07-31T02:09:50;100943.25;;;23.14;53.46
30302;BME280;17111;52.130;5.028;2023-07-31T02:12:17;100934.31;;;23.14;53.58
30302;BME280;17111;52.130;5.028;2023-07-31T02:14:43;100928.91;;;23.14;53.75
30302;BME280;17111;52.130;5.028;2023-07-31T02:17:10;100930.78;;;23.13;53.42
30302;BME280;17111;52.130;5.028;2023-07-31T02:19:37;100919.13;;;23.13;53.44
30302;BME280;17111;52.130;5.028;2023-07-31T02:22:03;100912.88;;;23.12;53.71
30302;BME280;17111;52.130;5.028;2023-07-31T02:24:30;100912.88;;;23.12;53.36
30302;BME280;17111;52.130;5.028;2023-07-31T02:26:58;100917.47;;;23.12;53.43
30302;BME280;17111;52.130;5.028;2023-07-31T02:29:24;100923.69;;;23.12;53.64
30302;BME280;17111;52.130;5.028;2023-07-31T02:31:51;100927.41;;;23.11;53.42
30302;BME280;17111;52.130;5.028;2023-07-31T02:34:18;100930.09;;;23.11;53.60
30302;BME280;17111;52.130;5.028;2023-07-31T02:36:44;100932.66;;;23.13;53.58
30302;BME280;17111;52.130;5.028;2023-07-31T02:39:11;100918.47;;;23.11;53.81
30302;BME280;17111;52.130;5.028;2023-07-31T02:41:37;100922.00;;;23.11;53.53
30302;BME280;17111;52.130;5.028;2023-07-31T02:44:04;100919.28;;;23.11;53.75
30302;BME280;17111;52.130;5.028;2023-07-31T02:46:31;100918.47;;;23.11;53.67
30302;BME280;17111;52.130;5.028;2023-07-31T02:48:58;100906.81;;;23.10;53.68
30302;BME280;17111;52.130;5.028;2023-07-31T02:51:24;100901.41;;;23.10;53.74
30302;BME280;17111;52.130;5.028;2023-07-31T02:53:51;100899.53;;;23.11;53.76
30302;BME280;17111;52.130;5.028;2023-07-31T02:56:17;100913.03;;;23.11;53.71
30302;BME280;17111;52.130;5.028;2023-07-31T02:58:44;100908.66;;;23.10;53.65
30302;BME280;17111;52.130;5.028;2023-07-31T03:01:11;100900.38;;;23.11;53.98
30302;BME280;17111;52.130;5.028;2023-07-31T03:03:37;100905.97;;;23.10;53.67
30302;BME280;17111;52.130;5.028;2023-07-31T03:06:04;100901.41;;;23.10;53.99
30302;BME280;17111;52.130;5.028;2023-07-31T03:08:31;100904.09;;;23.10;53.98
30302;BME280;17111;52.130;5.028;2023-07-31T03:10:57;100900.56;;;23.10;53.82
30302;BME280;17111;52.130;5.028;2023-07-31T03:13:24;100897.03;;;23.09;54.04
30302;BME280;17111;52.130;5.028;2023-07-31T03:15:50;100900.56;;;23.10;54.02
30302;BME280;17111;52.130;5.028;2023-07-31T03:18:17;100893.47;;;23.09;53.28
30302;BME280;17111;52.130;5.028;2023-07-31T03:20:44;100907.00;;;23.09;53.75
30302;BME280;17111;52.130;5.028;2023-07-31T03:23:10;100898.06;;;23.08;53.94
30302;BME280;17111;52.130;5.028;2023-07-31T03:25:37;100908.88;;;23.08;54.35
30302;BME280;17111;52.130;5.028;2023-07-31T03:28:04;100903.47;;;23.08;53.50
30302;BME280;17111;52.130;5.028;2023-07-31T03:30:30;100891.81;;;23.08;53.92
30302;BME280;17111;52.130;5.028;2023-07-31T03:32:57;100888.25;;;23.07;53.43
30302;BME280;17111;52.130;5.028;2023-07-31T03:35:23;100890.94;;;23.07;53.90
30302;BME280;17111;52.130;5.028;2023-07-31T03:37:50;100894.69;;;23.06;53.93
30302;BME280;17111;52.130;5.028;2023-07-31T03:40:17;100887.41;;;23.07;53.43
30302;BME280;17111;52.130;5.028;2023-07-31T03:42:43;100884.91;;;23.05;53.91
30302;BME280;17111;52.130;5.028;2023-07-31T03:45:10;100879.50;;;23.05;54.25
30302;BME280;17111;52.130;5.028;2023-07-31T03:47:36;100873.25;;;23.05;53.64
30302;BME280;17111;52.130;5.028;2023-07-31T03:50:03;100884.06;;;23.05;53.88
30302;BME280;17111;52.130;5.028;2023-07-31T03:52:30;100877.63;;;23.06;53.89
30302;BME280;17111;52.130;5.028;2023-07-31T03:54:56;100874.09;;;23.05;53.44
30302;BME280;17111;52.130;5.028;2023-07-31T03:57:23;100869.72;;;23.04;53.44
30302;BME280;17111;52.130;5.028;2023-07-31T03:59:50;100870.72;;;23.03;53.81
30302;BME280;17111;52.130;5.028;2023-07-31T04:02:16;100861.78;;;23.03;53.46
30302;BME280;17111;52.130;5.028;2023-07-31T04:04:45;100852.81;;;23.02;53.65
30302;BME280;17111;52.130;5.028;2023-07-31T04:07:11;100854.88;;;23.00;53.73
30302;BME280;17111;52.130;5.028;2023-07-31T04:09:38;100848.44;;;23.01;53.68
30302;BME280;17111;52.130;5.028;2023-07-31T04:12:05;100853.84;;;23.01;53.18
30302;BME280;17111;52.130;5.028;2023-07-31T04:14:31;100843.25;;;23.00;53.39
30302;BME280;17111;52.130;5.028;2023-07-31T04:16:58;100838.84;;;22.99;53.92
30302;BME280;17111;52.130;5.028;2023-07-31T04:19:25;100834.47;;;22.98;53.59
30302;BME280;17111;52.130;5.028;2023-07-31T04:21:51;100834.66;;;22.96;53.64
30302;BME280;17111;52.130;5.028;2023-07-31T04:24:18;100834.66;;;22.96;53.92
30302;BME280;17111;52.130;5.028;2023-07-31T04:26:52;100840.06;;;22.96;53.51
30302;BME280;17111;52.130;5.028;2023-07-31T04:29:19;100840.25;;;22.95;53.79
30302;BME280;17111;52.130;5.028;2023-07-31T04:31:47;100837.72;;;22.93;53.67
30302;BME280;17111;52.130;5.028;2023-07-31T04:34:14;100841.47;;;22.92;53.69
30302;BME280;17111;52.130;5.028;2023-07-31T04:36:40;100837.94;;;22.92;53.39
30302;BME280;17111;52.130;5.028;2023-07-31T04:39:07;100844.34;;;22.90;53.83
30302;BME280;17111;52.130;5.028;2023-07-31T04:41:34;100837.22;;;22.89;54.06
30302;BME280;17111;52.130;5.028;2023-07-31T04:44:01;100833.69;;;22.89;53.91
30302;BME280;17111;52.130;5.028;2023-07-31T04:46:27;100830.16;;;22.88;53.90
30302;BME280;17111;52.130;5.028;2023-07-31T04:48:54;100826.63;;;22.88;53.66
30302;BME280;17111;52.130;5.028;2023-07-31T04:51:21;100825.94;;;22.86;53.45
30302;BME280;17111;52.130;5.028;2023-07-31T04:53:47;100823.44;;;22.84;53.76
30302;BME280;17111;52.130;5.028;2023-07-31T04:56:14;100819.03;;;22.83;53.49
30302;BME280;17111;52.130;5.028;2023-07-31T04:58:41;100809.25;;;22.82;53.76
30302;BME280;17111;52.130;5.028;2023-07-31T05:01:08;100816.53;;;22.82;53.90
30302;BME280;17111;52.130;5.028;2023-07-31T05:03:35;100819.25;;;22.82;53.64
30302;BME280;17111;52.130;5.028;2023-07-31T05:06:01;100815.91;;;22.80;53.83
30302;BME280;17111;52.130;5.028;2023-07-31T05:08:28;100814.19;;;22.79;53.90
30302;BME280;17111;52.130;5.028;2023-07-31T05:10:54;100811.50;;;22.79;54.05
30302;BME280;17111;52.130;5.028;2023-07-31T05:13:21;100810.84;;;22.77;54.02
30302;BME280;17111;52.130;5.028;2023-07-31T05:15:48;100806.50;;;22.76;54.01
30302;BME280;17111;52.130;5.028;2023-07-31T05:18:16;100800.22;;;22.75;53.96
30302;BME280;17111;52.130;5.028;2023-07-31T05:20:42;100801.25;;;22.74;54.08
30302;BME280;17111;52.130;5.028;2023-07-31T05:23:09;100794.19;;;22.73;54.47
30302;BME280;17111;52.130;5.028;2023-07-31T05:25:35;100795.22;;;22.72;54.46
30302;BME280;17111;52.130;5.028;2023-07-31T05:28:02;100791.66;;;22.72;54.29
30302;BME280;17111;52.130;5.028;2023-07-31T05:30:32;100792.66;;;22.71;54.12
30302;BME280;17111;52.130;5.028;2023-07-31T05:32:58;100780.19;;;22.70;54.35
30302;BME280;17111;52.130;5.028;2023-07-31T05:35:25;100775.81;;;22.69;54.30
30302;BME280;17111;52.130;5.028;2023-07-31T05:37:51;100784.97;;;22.67;54.11
30302;BME280;17111;52.130;5.028;2023-07-31T05:40:18;100776.00;;;22.67;54.67
30302;BME280;17111;52.130;5.028;2023-07-31T05:42:45;100770.59;;;22.67;54.57
30302;BME280;17111;52.130;5.028;2023-07-31T05:45:11;100765.19;;;22.67;54.18
30302;BME280;17111;52.130;5.028;2023-07-31T05:47:40;100760.81;;;22.66;54.52
30302;BME280;17111;52.130;5.028;2023-07-31T05:50:07;100767.03;;;22.66;54.84
30302;BME280;17111;52.130;5.028;2023-07-31T05:52:34;100758.31;;;22.64;54.77
30302;BME280;17111;52.130;5.028;2023-07-31T05:55:01;100759.97;;;22.65;54.24
30302;BME280;17111;52.130;5.028;2023-07-31T05:57:27;100756.44;;;22.65;54.42
30302;BME280;17111;52.130;5.028;2023-07-31T05:59:54;100753.75;;;22.65;54.75
30302;BME280;17111;52.130;5.028;2023-07-31T06:02:21;100750.19;;;22.64;54.44
30302;BME280;17111;52.130;5.028;2023-07-31T06:04:47;100752.06;;;22.64;54.35
30302;BME280;17111;52.130;5.028;2023-07-31T06:07:14;100749.53;;;22.62;54.54
30302;BME280;17111;52.130;5.028;2023-07-31T06:09:41;100749.53;;;22.62;54.46
30302;BME280;17111;52.130;5.028;2023-07-31T06:12:07;100746.00;;;22.62;54.82
30302;BME280;17111;52.130;5.028;2023-07-31T06:14:35;100735.19;;;22.62;54.62
30302;BME280;17111;52.130;5.028;2023-07-31T06:17:01;100743.28;;;22.62;54.60
30302;BME280;17111;52.130;5.028;2023-07-31T06:19:28;100737.06;;;22.61;54.39
30302;BME280;17111;52.130;5.028;2023-07-31T06:21:54;100736.03;;;22.62;54.72
30302;BME280;17111;52.130;5.028;2023-07-31T06:24:21;100743.28;;;22.62;54.86
30302;BME280;17111;52.130;5.028;2023-07-31T06:26:48;100736.03;;;22.62;54.97
30302;BME280;17111;52.130;5.028;2023-07-31T06:29:15;100728.75;;;22.63;54.62
30302;BME280;17111;52.130;5.028;2023-07-31T06:31:41;100726.06;;;22.63;54.72
30302;BME280;17111;52.130;5.028;2023-07-31T06:34:08;100729.63;;;22.63;54.71
30302;BME280;17111;52.130;5.028;2023-07-31T06:36:35;100732.13;;;22.65;54.62
30302;BME280;17111;52.130;5.028;2023-07-31T06:39:01;100716.13;;;22.63;54.42
30302;BME280;17111;52.130;5.028;2023-07-31T06:41:28;100723.34;;;22.63;54.92
30302;BME280;17111;52.130;5.028;2023-07-31T06:43:55;100714.41;;;22.62;54.59
30302;BME280;17111;52.130;5.028;2023-07-31T06:46:21;100716.28;;;22.62;54.71
30302;BME280;17111;52.130;5.028;2023-07-31T06:48:48;100713.59;;;22.62;54.94
30302;BME280;17111;52.130;5.028;2023-07-31T06:51:14;100716.28;;;22.62;54.50
30302;BME280;17111;52.130;5.028;2023-07-31T06:53:41;100703.81;;;22.61;54.77
30302;BME280;17111;52.130;5.028;2023-07-31T06:56:09;100702.78;;;22.62;54.82
30302;BME280;17111;52.130;5.028;2023-07-31T06:58:35;100698.22;;;22.62;54.88
30302;BME280;17111;52.130;5.028;2023-07-31T07:01:02;100701.09;;;22.61;54.82
30302;BME280;17111;52.130;5.028;2023-07-31T07:03:29;100699.25;;;22.61;54.69
30302;BME280;17111;52.130;5.028;2023-07-31T07:05:55;100706.31;;;22.62;55.03
30302;BME280;17111;52.130;5.028;2023-07-31T07:08:23;100708.19;;;22.62;54.77
30302;BME280;17111;52.130;5.028;2023-07-31T07:10:52;100697.19;;;22.63;55.00
30302;BME280;17111;52.130;5.028;2023-07-31T07:13:21;100718.81;;;22.63;55.10
30302;BME280;17111;52.130;5.028;2023-07-31T07:15:51;100694.50;;;22.63;55.19
30302;BME280;17111;52.130;5.028;2023-07-31T07:18:18;100702.59;;;22.63;55.13
30302;BME280;17111;52.130;5.028;2023-07-31T07:20:52;100705.31;;;22.63;55.36
30302;BME280;17111;52.130;5.028;2023-07-31T07:23:20;100704.28;;;22.64;54.91
30302;BME280;17111;52.130;5.028;2023-07-31T07:25:47;100698.03;;;22.64;55.03
30302;BME280;17111;52.130;5.028;2023-07-31T07:28:14;100697.19;;;22.63;55.20
30302;BME280;17111;52.130;5.028;2023-07-31T07:30:41;100708.84;;;22.64;55.20
30302;BME280;17111;52.130;5.028;2023-07-31T07:33:07;100701.56;;;22.64;55.24
30302;BME280;17111;52.130;5.028;2023-07-31T07:35:34;100701.56;;;22.64;55.31
30302;BME280;17111;52.130;5.028;2023-07-31T07:38:02;100699.72;;;22.65;55.11
30302;BME280;17111;52.130;5.028;2023-07-31T07:40:29;100702.41;;;22.65;55.26
30302;BME280;17111;52.130;5.028;2023-07-31T07:42:55;100706.78;;;22.66;54.84
30302;BME280;17111;52.130;5.028;2023-07-31T07:45:22;100700.53;;;22.65;55.22
30302;BME280;17111;52.130;5.028;2023-07-31T07:47:49;100703.25;;;22.65;55.34
30302;BME280;17111;52.130;5.028;2023-07-31T07:50:15;100700.34;;;22.67;55.41
30302;BME280;17111;52.130;5.028;2023-07-31T07:52:42;100699.50;;;22.66;55.02
30302;BME280;17111;52.130;5.028;2023-07-31T07:55:08;100697.63;;;22.67;55.24
30302;BME280;17111;52.130;5.028;2023-07-31T07:57:35;100693.94;;;22.68;55.12
30302;BME280;17111;52.130;5.028;2023-07-31T08:00:02;100693.94;;;22.68;54.90
30302;BME280;17111;52.130;5.028;2023-07-31T08:02:29;100689.38;;;22.69;55.16
30302;BME280;17111;52.130;5.028;2023-07-31T08:04:55;100692.91;;;22.69;55.26
30302;BME280;17111;52.130;5.028;2023-07-31T08:07:22;100682.09;;;22.69;55.15
30302;BME280;17111;52.130;5.028;2023-07-31T08:09:49;100680.22;;;22.70;55.30
30302;BME280;17111;52.130;5.028;2023-07-31T08:12:16;100672.94;;;22.70;55.15
30302;BME280;17111;52.130;5.028;2023-07-31T08:14:42;100671.91;;;22.71;55.40
30302;BME280;17111;52.130;5.028;2023-07-31T08:17:09;100672.78;;;22.72;55.15
30302;BME280;17111;52.130;5.028;2023-07-31T08:19:35;100678.00;;;22.73;55.20
30302;BME280;17111;52.130;5.028;2023-07-31T08:22:02;100666.34;;;22.73;55.12
30302;BME280;17111;52.130;5.028;2023-07-31T08:24:29;100675.09;;;22.75;55.25
30302;BME280;17111;52.130;5.028;2023-07-31T08:26:55;100664.09;;;22.76;55.23
30302;BME280;17111;52.130;5.028;2023-07-31T08:29:22;100670.34;;;22.77;55.33
30302;BME280;17111;52.130;5.028;2023-07-31T08:31:49;100670.34;;;22.77;55.35
30302;BME280;17111;52.130;5.028;2023-07-31T08:34:15;100672.84;;;22.78;55.34
30302;BME280;17111;52.130;5.028;2023-07-31T08:36:42;100672.84;;;22.78;55.46
30302;BME280;17111;52.130;5.028;2023-07-31T08:39:09;100669.09;;;22.79;55.13
30302;BME280;17111;52.130;5.028;2023-07-31T08:41:38;100665.56;;;22.79;55.33
30302;BME280;17111;52.130;5.028;2023-07-31T08:44:10;100662.88;;;22.79;55.26
30302;BME280;17111;52.130;5.028;2023-07-31T08:46:37;100670.16;;;22.78;55.31
30302;BME280;17111;52.130;5.028;2023-07-31T08:49:05;100658.28;;;22.79;55.24
30302;BME280;17111;52.130;5.028;2023-07-31T08:51:34;100649.34;;;22.79;55.58
30302;BME280;17111;52.130;5.028;2023-07-31T08:54:01;100666.41;;;22.79;55.28
30302;BME280;17111;52.130;5.028;2023-07-31T08:56:28;100667.28;;;22.80;55.50
30302;BME280;17111;52.130;5.028;2023-07-31T08:58:55;100653.75;;;22.80;55.61
30302;BME280;17111;52.130;5.028;2023-07-31T09:01:23;100652.72;;;22.81;55.41
30302;BME280;17111;52.130;5.028;2023-07-31T09:03:50;100665.19;;;22.82;55.19
30302;BME280;17111;52.130;5.028;2023-07-31T09:06:18;100668.75;;;22.82;55.32
30302;BME280;17111;52.130;5.028;2023-07-31T09:08:46;100667.91;;;22.82;55.47
30302;BME280;17111;52.130;5.028;2023-07-31T09:11:13;100667.91;;;22.82;55.49
30302;BME280;17111;52.130;5.028;2023-07-31T09:13:41;100676.00;;;22.82;55.43
30302;BME280;17111;52.130;5.028;2023-07-31T09:16:08;100660.63;;;22.82;55.37
30302;BME280;17111;52.130;5.028;2023-07-31T09:18:55;100662.50;;;22.82;55.65
30302;BME280;17111;52.130;5.028;2023-07-31T09:21:23;100658.75;;;22.83;55.41
30302;BME280;17111;52.130;5.028;2023-07-31T09:23:50;100651.50;;;22.83;55.53
30302;BME280;17111;52.130;5.028;2023-07-31T09:26:31;100648.78;;;22.83;55.75
30302;BME280;17111;52.130;5.028;2023-07-31T09:28:59;100657.56;;;22.85;55.87
30302;BME280;17111;52.130;5.028;2023-07-31T09:31:52;100653.34;;;22.83;55.72
30302;BME280;17111;52.130;5.028;2023-07-31T09:34:20;100653.81;;;22.86;55.34
30302;BME280;17111;52.130;5.028;2023-07-31T09:36:56;100661.09;;;22.86;55.67
30302;BME280;17111;52.130;5.028;2023-07-31T09:39:23;100653.81;;;22.86;55.96
30302;BME280;17111;52.130;5.028;2023-07-31T09:41:56;100651.13;;;22.86;55.59
30302;BME280;17111;52.130;5.028;2023-07-31T09:44:38;100658.38;;;22.86;55.69
30302;BME280;17111;52.130;5.028;2023-07-31T09:47:06;100652.81;;;22.87;55.56
30302;BME280;17111;52.130;5.028;2023-07-31T09:49:32;100659.88;;;22.88;55.46
30302;BME280;17111;52.130;5.028;2023-07-31T09:52:00;100649.91;;;22.89;55.95
30302;BME280;17111;52.130;5.028;2023-07-31T09:54:26;100653.66;;;22.88;55.84
30302;BME280;17111;52.130;5.028;2023-07-31T09:56:54;100649.06;;;22.88;55.66
30302;BME280;17111;52.130;5.028;2023-07-31T09:59:21;100646.38;;;22.88;55.92
30302;BME280;17111;52.130;5.028;2023-07-31T10:01:50;100645.53;;;22.88;55.65
30302;BME280;17111;52.130;5.028;2023-07-31T10:04:20;100643.66;;;22.88;55.87
30302;BME280;17111;52.130;5.028;2023-07-31T10:06:53;100648.88;;;22.90;55.58
30302;BME280;17111;52.130;5.028;2023-07-31T10:09:21;100648.88;;;22.90;56.04
30302;BME280;17111;52.130;5.028;2023-07-31T10:12:00;100648.88;;;22.90;55.82
30302;BME280;17111;52.130;5.028;2023-07-31T10:14:27;100642.47;;;22.91;55.94
30302;BME280;17111;52.130;5.028;2023-07-31T10:16:56;100650.56;;;22.91;55.55
30302;BME280;17111;52.130;5.028;2023-07-31T10:19:23;100650.56;;;22.91;55.87
30302;BME280;17111;52.130;5.028;2023-07-31T10:21:51;100648.53;;;22.93;56.08
30302;BME280;17111;52.130;5.028;2023-07-31T10:24:18;100651.03;;;22.95;55.83
30302;BME280;17111;52.130;5.028;2023-07-31T10:26:46;100650.84;;;22.96;55.66
30302;BME280;17111;52.130;5.028;2023-07-31T10:29:16;100642.75;;;22.96;55.84
30302;BME280;17111;52.130;5.028;2023-07-31T10:31:45;100648.78;;;22.98;55.66
30302;BME280;17111;52.130;5.028;2023-07-31T10:34:14;100649.81;;;22.97;55.80
30302;BME280;17111;52.130;5.028;2023-07-31T10:36:40;100640.69;;;22.98;55.92
30302;BME280;17111;52.130;5.028;2023-07-31T10:39:33;100646.91;;;22.99;56.17
30302;BME280;17111;52.130;5.028;2023-07-31T10:42:12;100638.44;;;23.02;56.56
30302;BME280;17111;52.130;5.028;2023-07-31T10:44:44;100639.25;;;23.02;56.07
30302;BME280;17111;52.130;5.028;2023-07-31T10:47:14;100630.97;;;23.04;55.89
30302;BME280;17111;52.130;5.028;2023-07-31T10:49:44;100641.59;;;23.05;55.99
30302;BME280;17111;52.130;5.028;2023-07-31T10:52:12;100637.84;;;23.06;56.07
30302;BME280;17111;52.130;5.028;2023-07-31T10:54:40;100634.13;;;23.07;56.00
30302;BME280;17111;52.130;5.028;2023-07-31T10:57:19;100634.97;;;23.08;56.16
30302;BME280;17111;52.130;5.028;2023-07-31T10:59:47;100629.38;;;23.09;55.70
30302;BME280;17111;52.130;5.028;2023-07-31T11:02:26;100637.47;;;23.09;55.76
30302;BME280;17111;52.130;5.028;2023-07-31T11:05:07;100642.69;;;23.11;55.61
30302;BME280;17111;52.130;5.028;2023-07-31T11:07:47;100648.28;;;23.09;55.69
30302;BME280;17111;52.130;5.028;2023-07-31T11:10:18;100641.84;;;23.10;55.72
30302;BME280;17111;52.130;5.028;2023-07-31T11:12:45;100643.72;;;23.10;55.86
30302;BME280;17111;52.130;5.028;2023-07-31T11:15:13;100632.69;;;23.11;55.95
30302;BME280;17111;52.130;5.028;2023-07-31T11:17:40;100631.88;;;23.11;55.82
30302;BME280;17111;52.130;5.028;2023-07-31T11:20:07;100634.41;;;23.12;56.07
30302;BME280;17111;52.130;5.028;2023-07-31T11:22:35;100630.84;;;23.12;55.89
30302;BME280;17111;52.130;5.028;2023-07-31T11:25:05;100627.13;;;23.13;56.06
30302;BME280;17111;52.130;5.028;2023-07-31T11:27:38;100631.69;;;23.12;55.96
30302;BME280;17111;52.130;5.028;2023-07-31T11:30:06;100627.13;;;23.13;56.03
30302;BME280;17111;52.130;5.028;2023-07-31T11:32:33;100624.41;;;23.13;56.09
30302;BME280;17111;52.130;5.028;2023-07-31T11:35:00;100637.09;;;23.12;56.18
30302;BME280;17111;52.130;5.028;2023-07-31T11:37:40;100618.34;;;23.11;56.10
30302;BME280;17111;52.130;5.028;2023-07-31T11:40:08;100629.00;;;23.12;55.98
30302;BME280;17111;52.130;5.028;2023-07-31T11:42:35;100624.59;;;23.11;56.17
30302;BME280;17111;52.130;5.028;2023-07-31T11:45:04;100619.19;;;23.11;55.98
30302;BME280;17111;52.130;5.028;2023-07-31T11:47:35;100621.06;;;23.11;55.83
30302;BME280;17111;52.130;5.028;2023-07-31T11:50:06;100621.88;;;23.11;56.45
30302;BME280;17111;52.130;5.028;2023-07-31T11:52:37;100616.47;;;23.11;56.32
30302;BME280;17111;52.130;5.028;2023-07-31T11:55:05;100619.19;;;23.11;56.42
30302;BME280;17111;52.130;5.028;2023-07-31T11:57:38;100613.59;;;23.13;56.17
30302;BME280;17111;52.130;5.028;2023-07-31T12:00:08;100625.44;;;23.12;56.41
30302;BME280;17111;52.130;5.028;2023-07-31T12:02:36;100634.41;;;23.12;56.28
30302;BME280;17111;52.130;5.028;2023-07-31T12:05:03;100641.47;;;23.13;56.33
30302;BME280;17111;52.130;5.028;2023-07-31T12:07:52;100642.50;;;23.12;56.61
30302;BME280;17111;52.130;5.028;2023-07-31T12:13:20;100640.81;;;23.11;56.10
30302;BME280;17111;52.130;5.028;2023-07-31T12:15:48;100626.09;;;23.14;56.43
30302;BME280;17111;52.130;5.028;2023-07-31T12:18:16;100622.53;;;23.13;56.59
30302;BME280;17111;52.130;5.028;2023-07-31T12:20:49;100623.38;;;23.14;56.56
30302;BME280;17111;52.130;5.028;2023-07-31T12:23:21;100608.00;;;23.14;56.10
30302;BME280;17111;52.130;5.028;2023-07-31T12:26:07;100602.56;;;23.14;56.25
30302;BME280;17111;52.130;5.028;2023-07-31T12:28:44;100597.00;;;23.16;56.26
30302;BME280;17111;52.130;5.028;2023-07-31T12:31:15;100601.53;;;23.15;56.24
30302;BME280;17111;52.130;5.028;2023-07-31T12:33:44;100598.00;;;23.15;56.52
30302;BME280;17111;52.130;5.028;2023-07-31T12:36:16;100592.41;;;23.17;56.37
30302;BME280;17111;52.130;5.028;2023-07-31T12:38:44;100588.88;;;23.16;56.30
30302;BME280;17111;52.130;5.028;2023-07-31T12:41:11;100590.34;;;23.19;56.13
30302;BME280;17111;52.130;5.028;2023-07-31T12:43:39;100595.97;;;23.17;56.50
30302;BME280;17111;52.130;5.028;2023-07-31T12:46:07;100586.81;;;23.18;56.35
30302;BME280;17111;52.130;5.028;2023-07-31T12:48:38;100582.44;;;23.17;56.37
30302;BME280;17111;52.130;5.028;2023-07-31T12:51:05;100579.75;;;23.17;56.84
30302;BME280;17111;52.130;5.028;2023-07-31T12:53:33;100577.66;;;23.19;56.72
30302;BME280;17111;52.130;5.028;2023-07-31T12:56:00;100573.13;;;23.20;56.19
30302;BME280;17111;52.130;5.028;2023-07-31T12:58:26;100574.78;;;23.21;56.96
30302;BME280;17111;52.130;5.028;2023-07-31T13:00:53;100581.84;;;23.22;56.98
30302;BME280;17111;52.130;5.028;2023-07-31T13:03:19;100577.09;;;23.24;57.02
30302;BME280;17111;52.130;5.028;2023-07-31T13:05:46;100576.91;;;23.25;56.71